Time;durP1;ratioP1;P1;durP2;ratioP2;P2;SDS_P1;SDS_P2;PMS_P1;PMS_P2;Temp;Humidity;BMP_temperature;BMP_pressure;BME280_temperature;BME280_humidity;BME280_pressure;Samples;Min_cycle;Max_cycle;Signal;HPM_P1;HPM_P2
2021/03/01 00:02:08;;;;;;;;;;;7.40;99.90;;;;;;5058085;28;19909;-71
2021/03/01 00:04:33;;;;;;;;;;;7.40;99.90;;;;;;5059574;28;19909;-74
2021/03/01 00:06:59;;;;;;;;;;;7.40;99.90;;;;;;5056755;28;20347;-70
2021/03/01 00:09:24;;;;;;;;;;;7.40;99.90;;;;;;5060267;28;19909;-71
2021/03/01 00:11:50;;;;;;;;;;;7.40;99.90;;;;;;5059700;28;19905;-71
2021/03/01 00:14:16;;;;;;;;;;;7.40;99.90;;;;;;5059225;28;20429;-71
2021/03/01 00:16:41;;;;;;;;;;;7.40;99.90;;;;;;5057802;28;19928;-73
2021/03/01 00:19:07;;;;;;;;;;;7.30;99.90;;;;;;5057358;28;20281;-73
2021/03/01 00:21:33;;;;;;;;;;;7.30;99.90;;;;;;5058594;28;19995;-74
2021/03/01 00:23:59;;;;;;;;;;;7.30;99.90;;;;;;5057081;28;19959;-73
2021/03/01 00:26:24;;;;;;;;;;;7.30;99.90;;;;;;5059402;28;19947;-70
2021/03/01 00:28:50;;;;;;;;;;;7.30;99.90;;;;;;5056171;28;19978;-71
2021/03/01 00:31:15;;;;;;;;;;;7.30;99.90;;;;;;5060777;28;20065;-71
2021/03/01 00:33:41;;;;;;;;;;;7.30;99.90;;;;;;5071834;28;19904;-71
2021/03/01 00:36:06;;;;;;;;;;;7.20;99.90;;;;;;5071702;28;20281;-70
2021/03/01 00:38:32;;;;;;;;;;;7.20;99.90;;;;;;5071729;28;19943;-71
2021/03/01 00:40:57;;;;;;;;;;;7.20;99.90;;;;;;5069885;28;19915;-71
2021/03/01 00:43:23;;;;;;;;;;;7.10;99.90;;;;;;5059099;28;19911;-71
2021/03/01 00:45:49;;;;;;;;;;;7.10;99.90;;;;;;5067949;28;19908;-72
2021/03/01 00:48:14;;;;;;;;;;;7.10;99.90;;;;;;5071515;28;19930;-72
2021/03/01 00:50:40;;;;;;;;;;;7.10;99.90;;;;;;5071217;28;19904;-72
2021/03/01 00:53:06;;;;;;;;;;;7.10;99.90;;;;;;5071825;28;19909;-69
2021/03/01 00:55:31;;;;;;;;;;;7.10;99.90;;;;;;5064120;28;19913;-70
2021/03/01 00:57:57;;;;;;;;;;;7.10;99.90;;;;;;5066956;28;19912;-69
2021/03/01 01:00:22;;;;;;;;;;;7.00;99.90;;;;;;5055678;28;19951;-70
2021/03/01 01:02:48;;;;;;;;;;;7.00;99.90;;;;;;5055247;28;19909;-70
2021/03/01 01:05:14;;;;;;;;;;;6.90;99.90;;;;;;5054070;28;19915;-70
2021/03/01 01:07:40;;;;;;;;;;;6.90;99.90;;;;;;5057693;28;19904;-69
2021/03/01 01:10:06;;;;;;;;;;;6.90;99.90;;;;;;5055879;28;19904;-69
2021/03/01 01:12:35;;;;;;;;;;;6.90;99.90;;;;;;5057469;28;19905;-69
2021/03/01 01:15:02;;;;;;;;;;;6.80;99.90;;;;;;5056198;28;19959;-71
2021/03/01 01:17:27;;;;;;;;;;;6.80;99.90;;;;;;5072446;28;19951;-70
2021/03/01 01:19:53;;;;;;;;;;;6.80;99.90;;;;;;5072241;28;20376;-69
2021/03/01 01:22:18;;;;;;;;;;;6.70;99.90;;;;;;5072334;28;19913;-70
2021/03/01 01:24:44;;;;;;;;;;;6.60;99.90;;;;;;5064576;28;20353;-70
2021/03/01 01:27:09;;;;;;;;;;;6.60;99.90;;;;;;5058860;28;20335;-71
2021/03/01 01:29:35;;;;;;;;;;;6.60;99.90;;;;;;5061087;28;20365;-70
2021/03/01 01:32:01;;;;;;;;;;;6.60;99.90;;;;;;5060654;28;19915;-69
2021/03/01 01:34:26;;;;;;;;;;;6.60;99.90;;;;;;5058913;28;19912;-70
2021/03/01 01:36:52;;;;;;;;;;;6.50;99.90;;;;;;5064518;28;19955;-70
2021/03/01 01:39:17;;;;;;;;;;;6.50;99.90;;;;;;5073414;28;19916;-71
2021/03/01 01:41:43;;;;;;;;;;;6.50;99.90;;;;;;5073205;28;19908;-71
2021/03/01 01:44:08;;;;;;;;;;;6.40;99.90;;;;;;5073254;28;19905;-71
2021/03/01 01:46:34;;;;;;;;;;;6.40;99.90;;;;;;5105961;28;19908;-70
2021/03/01 01:49:00;;;;;;;;;;;6.40;99.90;;;;;;5073269;28;19904;-70
2021/03/01 01:51:25;;;;;;;;;;;6.40;99.90;;;;;;5073157;28;19904;-69
2021/03/01 01:53:51;;;;;;;;;;;6.40;99.90;;;;;;5073245;28;19911;-70
2021/03/01 01:56:17;;;;;;;;;;;6.40;99.90;;;;;;5073409;28;19926;-70
2021/03/01 01:58:42;;;;;;;;;;;6.40;99.90;;;;;;5072661;28;19904;-69
2021/03/01 02:01:08;;;;;;;;;;;6.30;99.90;;;;;;5053724;28;19909;-69
2021/03/01 02:03:33;;;;;;;;;;;6.30;99.90;;;;;;5053512;28;19904;-70
2021/03/01 02:06:02;;;;;;;;;;;6.30;99.90;;;;;;5053597;28;19904;-70
2021/03/01 02:08:31;;;;;;;;;;;6.30;99.90;;;;;;5053832;28;19949;-71
2021/03/01 02:11:05;;;;;;;;;;;6.40;99.90;;;;;;5054337;28;19912;-72
2021/03/01 02:13:35;;;;;;;;;;;6.30;99.90;;;;;;5058090;28;19905;-70
2021/03/01 02:16:03;;;;;;;;;;;6.30;99.90;;;;;;5058034;28;19961;-70
2021/03/01 02:18:28;;;;;;;;;;;6.30;99.90;;;;;;5057264;28;20014;-71
2021/03/01 02:20:55;;;;;;;;;;;6.30;99.90;;;;;;5057934;28;19917;-69
2021/03/01 02:23:20;;;;;;;;;;;6.30;99.90;;;;;;5057507;28;19996;-69
2021/03/01 02:25:52;;;;;;;;;;;6.30;99.90;;;;;;5057144;28;20278;-69
2021/03/01 02:28:20;;;;;;;;;;;6.30;99.90;;;;;;5056878;28;20019;-72
2021/03/01 02:30:54;;;;;;;;;;;6.30;99.90;;;;;;5057545;28;19908;-70
2021/03/01 02:33:21;;;;;;;;;;;6.30;99.90;;;;;;5057142;28;20003;-70
2021/03/01 02:35:53;;;;;;;;;;;6.40;99.90;;;;;;5057259;28;19908;-70
2021/03/01 02:38:20;;;;;;;;;;;6.40;99.90;;;;;;5071612;28;19904;-71
2021/03/01 02:40:46;;;;;;;;;;;6.40;99.90;;;;;;5076187;28;19909;-70
2021/03/01 02:43:12;;;;;;;;;;;6.40;99.90;;;;;;5076279;28;20483;-70
2021/03/01 02:45:39;;;;;;;;;;;6.40;99.90;;;;;;5076237;28;20307;-70
2021/03/01 02:48:05;;;;;;;;;;;6.40;99.90;;;;;;5075940;28;19904;-70
2021/03/01 02:50:31;;;;;;;;;;;6.40;99.90;;;;;;5076286;28;20289;-70
2021/03/01 02:52:57;;;;;;;;;;;6.40;99.90;;;;;;5075801;28;19904;-70
2021/03/01 02:55:23;;;;;;;;;;;6.40;99.90;;;;;;5076250;28;19968;-71
2021/03/01 02:57:49;;;;;;;;;;;6.30;99.90;;;;;;5076377;28;19908;-70
2021/03/01 03:00:15;;;;;;;;;;;6.10;99.90;;;;;;5075968;28;20362;-70
2021/03/01 03:02:42;;;;;;;;;;;6.00;99.90;;;;;;5075766;28;19915;-70
2021/03/01 03:05:08;;;;;;;;;;;6.00;99.90;;;;;;5075821;28;20257;-69
2021/03/01 03:07:38;;;;;;;;;;;5.90;99.90;;;;;;5075396;28;20388;-69
2021/03/01 03:10:04;;;;;;;;;;;5.70;99.90;;;;;;5076098;28;19908;-69
2021/03/01 03:12:31;;;;;;;;;;;5.40;99.90;;;;;;5075682;28;19911;-70
2021/03/01 03:14:58;;;;;;;;;;;4.70;99.90;;;;;;5075716;28;19909;-69
2021/03/01 03:17:24;;;;;;;;;;;4.60;99.90;;;;;;5069168;28;19912;-70
2021/03/01 03:19:49;;;;;;;;;;;4.40;99.90;;;;;;5070673;28;19915;-69
2021/03/01 03:22:15;;;;;;;;;;;4.10;99.90;;;;;;5068325;28;19908;-71
2021/03/01 03:24:41;;;;;;;;;;;3.70;99.90;;;;;;5070851;28;19904;-70
2021/03/01 03:27:06;;;;;;;;;;;3.80;99.90;;;;;;5069583;28;19908;-70
2021/03/01 03:29:32;;;;;;;;;;;3.70;99.90;;;;;;5066791;28;20003;-70
2021/03/01 03:31:57;;;;;;;;;;;3.90;99.90;;;;;;5073903;28;19905;-70
2021/03/01 03:34:23;;;;;;;;;;;3.90;99.90;;;;;;5064524;28;20411;-71
2021/03/01 03:36:53;;;;;;;;;;;3.90;99.90;;;;;;5070345;28;19908;-70
2021/03/01 03:39:19;;;;;;;;;;;3.90;99.90;;;;;;5075453;28;19915;-71
2021/03/01 03:41:46;;;;;;;;;;;4.00;99.90;;;;;;5075332;28;19912;-70
2021/03/01 03:44:14;;;;;;;;;;;3.90;99.90;;;;;;5075178;28;19947;-70
2021/03/01 03:46:40;;;;;;;;;;;3.90;99.90;;;;;;5075062;28;20086;-69
2021/03/01 03:49:08;;;;;;;;;;;4.00;99.90;;;;;;5074888;28;20039;-69
2021/03/01 03:51:34;;;;;;;;;;;3.80;99.90;;;;;;5075012;28;19908;-71
2021/03/01 03:54:02;;;;;;;;;;;4.00;99.90;;;;;;5075150;28;19904;-71
2021/03/01 03:56:29;;;;;;;;;;;4.00;99.90;;;;;;5074845;28;19999;-70
2021/03/01 03:58:57;;;;;;;;;;;3.80;99.90;;;;;;5074670;28;20403;-69
2021/03/01 04:01:24;;;;;;;;;;;3.80;99.90;;;;;;5075137;28;19909;-69
2021/03/01 04:03:50;;;;;;;;;;;3.60;99.90;;;;;;5074253;28;19904;-69
2021/03/01 04:06:17;;;;;;;;;;;3.60;99.90;;;;;;5074961;28;19928;-69
2021/03/01 04:08:44;;;;;;;;;;;3.60;99.90;;;;;;5074725;28;19909;-69
2021/03/01 04:11:10;;;;;;;;;;;3.40;99.90;;;;;;5074417;28;19927;-69
2021/03/01 04:13:36;;;;;;;;;;;3.60;99.90;;;;;;5074787;28;19951;-70
2021/03/01 04:16:01;;;;;;;;;;;3.50;99.90;;;;;;5069701;28;20373;-71
2021/03/01 04:18:28;;;;;;;;;;;3.50;99.90;;;;;;5059088;28;19905;-70
2021/03/01 04:20:59;;;;;;;;;;;3.70;99.90;;;;;;5098173;28;19931;-70
2021/03/01 04:23:26;;;;;;;;;;;3.80;99.90;;;;;;5061902;28;19916;-70
2021/03/01 04:25:52;;;;;;;;;;;4.00;99.90;;;;;;5059415;28;19916;-71
2021/03/01 04:28:19;;;;;;;;;;;4.00;99.90;;;;;;5073195;28;19916;-70
2021/03/01 04:30:45;;;;;;;;;;;4.10;99.90;;;;;;5069105;28;20281;-71
2021/03/01 04:33:12;;;;;;;;;;;4.20;99.90;;;;;;5068538;28;19904;-70
2021/03/01 04:35:39;;;;;;;;;;;4.40;99.90;;;;;;5070632;28;19911;-70
2021/03/01 04:38:04;;;;;;;;;;;4.60;99.90;;;;;;5070439;28;19915;-70
2021/03/01 04:40:30;;;;;;;;;;;4.60;99.90;;;;;;5074201;28;19908;-70
2021/03/01 04:42:56;;;;;;;;;;;4.50;99.90;;;;;;5069762;28;19917;-70
2021/03/01 04:45:22;;;;;;;;;;;4.90;99.90;;;;;;5068035;28;19905;-69
2021/03/01 04:47:48;;;;;;;;;;;4.90;99.90;;;;;;5071816;28;19904;-70
2021/03/01 04:50:15;;;;;;;;;;;4.90;99.90;;;;;;5069354;28;19909;-69
2021/03/01 04:52:42;;;;;;;;;;;5.00;99.90;;;;;;5071474;28;19991;-69
2021/03/01 04:55:08;;;;;;;;;;;4.90;99.90;;;;;;5070030;28;19904;-69
2021/03/01 04:57:34;;;;;;;;;;;5.00;99.90;;;;;;5070661;28;20338;-71
2021/03/01 04:59:59;;;;;;;;;;;5.10;99.90;;;;;;5071050;28;19919;-71
2021/03/01 05:02:25;;;;;;;;;;;5.10;99.90;;;;;;5069128;28;20400;-71
2021/03/01 05:04:51;;;;;;;;;;;5.10;99.90;;;;;;5071216;28;19909;-69
2021/03/01 05:07:19;;;;;;;;;;;4.50;99.90;;;;;;5067654;28;19959;-70
2021/03/01 05:09:44;;;;;;;;;;;5.00;99.90;;;;;;5071570;28;20338;-69
2021/03/01 05:12:10;;;;;;;;;;;4.80;99.90;;;;;;5069512;28;19915;-69
2021/03/01 05:14:36;;;;;;;;;;;4.90;99.90;;;;;;5063491;28;19904;-68
2021/03/01 05:17:02;;;;;;;;;;;4.80;99.90;;;;;;5064816;28;20004;-69
2021/03/01 05:19:29;;;;;;;;;;;4.70;99.90;;;;;;5064777;28;19995;-70
2021/03/01 05:21:54;;;;;;;;;;;4.50;99.90;;;;;;5065472;28;19973;-70
2021/03/01 05:24:20;;;;;;;;;;;4.80;99.90;;;;;;5062931;28;20366;-68
2021/03/01 05:26:45;;;;;;;;;;;4.70;99.90;;;;;;5067757;28;19958;-71
2021/03/01 05:29:11;;;;;;;;;;;4.70;99.90;;;;;;5061504;28;20358;-69
2021/03/01 05:31:36;;;;;;;;;;;4.60;99.90;;;;;;5067020;28;20007;-72
2021/03/01 05:34:02;;;;;;;;;;;4.70;99.90;;;;;;5063494;28;19912;-71
2021/03/01 05:36:27;;;;;;;;;;;4.40;99.90;;;;;;5064366;28;19908;-71
2021/03/01 05:38:53;;;;;;;;;;;4.70;99.90;;;;;;5073193;28;19904;-71
2021/03/01 05:41:19;;;;;;;;;;;5.00;99.90;;;;;;5072310;28;19916;-71
2021/03/01 05:43:45;;;;;;;;;;;4.70;99.90;;;;;;5067143;28;19952;-71
2021/03/01 05:46:11;;;;;;;;;;;4.90;99.90;;;;;;5071018;28;19904;-70
2021/03/01 05:48:39;;;;;;;;;;;4.80;99.90;;;;;;5069573;28;19911;-71
2021/03/01 05:51:05;;;;;;;;;;;5.00;99.90;;;;;;5072169;28;20383;-70
2021/03/01 05:53:37;;;;;;;;;;;4.90;99.90;;;;;;5068493;28;19905;-70
2021/03/01 05:56:02;;;;;;;;;;;5.00;99.90;;;;;;5061677;28;19908;-69
2021/03/01 05:58:29;;;;;;;;;;;5.20;99.90;;;;;;5069595;28;19905;-70
2021/03/01 06:00:58;;;;;;;;;;;5.20;99.90;;;;;;5070382;28;19919;-69
2021/03/01 06:03:24;;;;;;;;;;;5.30;99.90;;;;;;5071695;28;20300;-71
2021/03/01 06:05:52;;;;;;;;;;;5.40;99.90;;;;;;5070352;28;19927;-70
2021/03/01 06:08:18;;;;;;;;;;;5.50;99.90;;;;;;5072105;28;19942;-70
2021/03/01 06:10:44;;;;;;;;;;;5.60;99.90;;;;;;5069534;28;19912;-70
2021/03/01 06:13:09;;;;;;;;;;;5.30;99.90;;;;;;5073391;28;19904;-72
2021/03/01 06:15:37;;;;;;;;;;;5.90;99.90;;;;;;5070091;28;19904;-70
2021/03/01 06:18:06;;;;;;;;;;;5.90;99.90;;;;;;5072400;28;19911;-71
2021/03/01 06:20:32;;;;;;;;;;;5.90;99.90;;;;;;5070857;28;19963;-70
2021/03/01 06:22:58;;;;;;;;;;;6.00;99.90;;;;;;5070753;28;19919;-71
2021/03/01 06:25:24;;;;;;;;;;;6.00;99.90;;;;;;5073106;28;19904;-71
2021/03/01 06:27:53;;;;;;;;;;;5.80;99.90;;;;;;5069025;28;19992;-70
2021/03/01 06:30:21;;;;;;;;;;;5.70;99.90;;;;;;5071597;28;20266;-71
2021/03/01 06:33:03;;;;;;;;;;;5.60;99.90;;;;;;5069191;28;19974;-71
2021/03/01 06:35:33;;;;;;;;;;;5.70;99.90;;;;;;5073014;28;20416;-70
2021/03/01 06:38:19;;;;;;;;;;;5.40;99.90;;;;;;5072591;28;19905;-71
2021/03/01 06:41:03;;;;;;;;;;;5.50;99.90;;;;;;5062985;28;19923;-72
2021/03/01 06:43:28;;;;;;;;;;;5.60;99.90;;;;;;5076601;28;19909;-71
2021/03/01 06:46:04;;;;;;;;;;;5.50;99.90;;;;;;5108855;28;19908;-71
2021/03/01 06:48:30;;;;;;;;;;;5.80;99.90;;;;;;5076535;28;19995;-69
2021/03/01 06:50:55;;;;;;;;;;;5.90;99.90;;;;;;5075856;28;19943;-69
2021/03/01 06:53:21;;;;;;;;;;;6.20;99.90;;;;;;5076767;28;19905;-69
2021/03/01 06:56:06;;;;;;;;;;;6.50;99.90;;;;;;5076314;28;20365;-70
2021/03/01 06:58:35;;;;;;;;;;;6.30;99.90;;;;;;5075223;28;19950;-69
2021/03/01 07:01:02;;;;;;;;;;;6.50;99.90;;;;;;5076187;28;20421;-69
2021/03/01 07:03:28;;;;;;;;;;;6.50;99.90;;;;;;5076179;28;19908;-69
2021/03/01 07:05:54;;;;;;;;;;;6.50;99.90;;;;;;5076024;28;19950;-68
2021/03/01 07:08:38;;;;;;;;;;;6.60;99.90;;;;;;5075839;28;20293;-69
2021/03/01 07:11:24;;;;;;;;;;;6.50;99.90;;;;;;5075722;28;20286;-71
2021/03/01 07:13:50;;;;;;;;;;;6.50;99.90;;;;;;5075085;28;19904;-69
2021/03/01 07:16:16;;;;;;;;;;;6.80;99.90;;;;;;5075875;28;19957;-71
2021/03/01 07:18:41;;;;;;;;;;;6.70;99.90;;;;;;5075662;28;19904;-70
2021/03/01 07:21:07;;;;;;;;;;;;;;;;;;5075248;28;20003;-71
2021/03/01 07:23:33;;;;;;;;;;;7.00;99.90;;;;;;5076161;28;20326;-71
2021/03/01 07:25:59;;;;;;;;;;;7.20;99.90;;;;;;5073988;28;19912;-71
2021/03/01 07:28:25;;;;;;;;;;;7.00;99.90;;;;;;5061153;28;19920;-72
2021/03/01 07:30:53;;;;;;;;;;;7.20;99.90;;;;;;5062403;28;19904;-71
2021/03/01 07:33:19;;;;;;;;;;;7.20;99.90;;;;;;5075239;28;19904;-71
2021/03/01 07:35:45;;;;;;;;;;;7.60;99.90;;;;;;5075431;28;19908;-69
2021/03/01 07:38:10;;;;;;;;;;;7.80;99.90;;;;;;5075269;28;19912;-70
2021/03/01 07:40:36;;;;;;;;;;;6.60;99.90;;;;;;5074849;28;20253;-73
2021/03/01 07:43:02;;;;;;;;;;;8.00;99.90;;;;;;5075608;28;20317;-71
2021/03/01 07:45:28;;;;;;;;;;;7.60;99.90;;;;;;5074940;28;19908;-70
2021/03/01 07:47:54;;;;;;;;;;;7.30;99.90;;;;;;5074830;28;19929;-71
2021/03/01 07:50:36;;;;;;;;;;;8.00;99.90;;;;;;5074856;28;19904;-72
2021/03/01 07:53:03;;;;;;;;;;;;;;;;;;5075260;28;19998;-72
2021/03/01 07:55:28;;;;;;;;;;;7.80;99.90;;;;;;5090771;28;20238;-70
2021/03/01 07:58:00;;;;;;;;;;;7.80;99.90;;;;;;5075338;28;19904;-71
2021/03/01 08:00:27;;;;;;;;;;;7.80;99.90;;;;;;5074542;28;19966;-72
2021/03/01 08:02:53;;;;;;;;;;;7.90;99.90;;;;;;5057880;28;19913;-70
2021/03/01 08:05:26;;;;;;;;;;;8.00;99.90;;;;;;5058344;28;19992;-68
2021/03/01 08:07:52;;;;;;;;;;;8.10;99.90;;;;;;5061003;28;19908;-72
2021/03/01 08:10:19;;;;;;;;;;;7.90;99.90;;;;;;5057619;28;19911;-69
2021/03/01 08:12:48;;;;;;;;;;;8.20;99.90;;;;;;5073199;28;19912;-71
2021/03/01 08:15:19;;;;;;;;;;;8.30;99.90;;;;;;5073468;28;19904;-71
2021/03/01 08:17:48;;;;;;;;;;;8.40;99.90;;;;;;5069907;28;19971;-72
2021/03/01 08:20:16;;;;;;;;;;;8.50;99.90;;;;;;5071303;28;21303;-72
2021/03/01 08:23:01;;;;;;;;;;;8.50;99.90;;;;;;5085085;28;19909;-70
2021/03/01 08:25:41;;;;;;;;;;;8.50;99.90;;;;;;5068427;28;19914;-72
2021/03/01 08:28:07;;;;;;;;;;;8.70;99.90;;;;;;5072917;28;19954;-70
2021/03/01 08:30:33;;;;;;;;;;;8.60;99.90;;;;;;5072309;28;19930;-70
2021/03/01 08:33:25;;;;;;;;;;;8.60;99.90;;;;;;5066171;28;19940;-71
2021/03/01 08:35:52;;;;;;;;;;;8.70;99.90;;;;;;5070041;28;20015;-70
2021/03/01 08:38:38;;;;;;;;;;;8.50;99.90;;;;;;5070482;28;20003;-70
2021/03/01 08:41:03;;;;;;;;;;;8.70;99.90;;;;;;5057178;28;19912;-70
2021/03/01 08:43:45;;;;;;;;;;;8.90;99.90;;;;;;5068706;28;20278;-71
2021/03/01 08:46:14;;;;;;;;;;;8.90;99.90;;;;;;5069258;28;19908;-72
2021/03/01 08:48:40;;;;;;;;;;;9.20;99.90;;;;;;5061041;28;19908;-69
2021/03/01 08:51:06;;;;;;;;;;;9.20;99.90;;;;;;5064494;28;19928;-70
2021/03/01 08:53:31;;;;;;;;;;;9.40;99.90;;;;;;5054802;28;19905;-71
2021/03/01 08:55:59;;;;;;;;;;;9.50;99.90;;;;;;5059316;28;19905;-71
2021/03/01 08:58:35;;;;;;;;;;;9.60;99.90;;;;;;5073766;28;19947;-71
2021/03/01 09:01:02;;;;;;;;;;;9.70;99.90;;;;;;5072591;28;19986;-72
2021/03/01 09:03:34;;;;;;;;;;;9.60;99.90;;;;;;5074478;28;19936;-75
2021/03/01 09:06:10;;;;;;;;;;;9.80;99.90;;;;;;5075398;28;19905;-72
2021/03/01 09:08:37;;;;;;;;;;;10.00;99.90;;;;;;5074987;28;19991;-72
2021/03/01 09:11:05;;;;;;;;;;;10.10;99.90;;;;;;5072832;28;20247;-70
2021/03/01 09:13:33;;;;;;;;;;;10.10;99.60;;;;;;5074801;28;19904;-76
2021/03/01 09:16:08;;;;;;;;;;;10.30;99.90;;;;;;5074028;28;19927;-71
2021/03/01 09:18:34;;;;;;;;;;;10.10;99.90;;;;;;5073864;28;20070;-70
2021/03/01 09:21:00;;;;;;;;;;;10.20;99.10;;;;;;5073232;28;19908;-72
2021/03/01 09:23:33;;;;;;;;;;;10.40;97.60;;;;;;5073738;28;19908;-73
2021/03/01 09:25:59;;;;;;;;;;;10.30;97.20;;;;;;5074319;28;19904;-74
2021/03/01 09:28:32;;;;;;;;;;;10.40;95.90;;;;;;5073648;28;19925;-73
2021/03/01 09:31:08;;;;;;;;;;;10.40;95.70;;;;;;5072858;28;20300;-73
2021/03/01 09:33:34;;;;;;;;;;;10.40;96.80;;;;;;5074823;28;19909;-73
2021/03/01 09:36:00;;;;;;;;;;;10.60;96.30;;;;;;5073572;28;19952;-73
2021/03/01 09:38:25;;;;;;;;;;;10.60;95.40;;;;;;5073398;28;19955;-73
2021/03/01 09:40:57;;;;;;;;;;;10.70;94.90;;;;;;5073482;28;19958;-72
2021/03/01 09:43:23;;;;;;;;;;;10.50;96.10;;;;;;5073156;28;20373;-69
2021/03/01 09:45:49;;;;;;;;;;;10.40;95.50;;;;;;5106080;28;20388;-74
2021/03/01 09:48:15;;;;;;;;;;;10.60;95.80;;;;;;5072318;28;20266;-72
2021/03/01 09:50:40;;;;;;;;;;;10.60;95.60;;;;;;5073111;28;19919;-71
2021/03/01 09:53:06;;;;;;;;;;;10.60;95.50;;;;;;5073096;28;19908;-71
2021/03/01 09:55:32;;;;;;;;;;;10.60;94.60;;;;;;5060110;28;19919;-71
2021/03/01 09:57:57;;;;;;;;;;;10.80;93.70;;;;;;5070159;28;20297;-72
2021/03/01 10:00:28;;;;;;;;;;;11.00;92.20;;;;;;5071238;28;19946;-71
2021/03/01 10:02:58;;;;;;;;;;;10.60;92.70;;;;;;5071875;28;19920;-71
2021/03/01 10:05:24;;;;;;;;;;;10.60;93.40;;;;;;5071432;28;20085;-72
2021/03/01 10:07:56;;;;;;;;;;;10.60;94.20;;;;;;5071529;28;19915;-68
2021/03/01 10:10:22;;;;;;;;;;;10.80;91.60;;;;;;5071516;28;20392;-72
2021/03/01 10:12:49;;;;;;;;;;;10.90;90.50;;;;;;5070719;28;20016;-73
2021/03/01 10:15:15;;;;;;;;;;;10.80;90.50;;;;;;5070141;28;19923;-70
2021/03/01 10:17:40;;;;;;;;;;;11.10;91.20;;;;;;5064803;28;20011;-70
2021/03/01 10:20:07;;;;;;;;;;;11.20;90.00;;;;;;5065388;28;20269;-70
2021/03/01 10:22:52;;;;;;;;;;;11.10;89.10;;;;;;5055373;28;19925;-72
2021/03/01 10:25:26;;;;;;;;;;;11.30;86.00;;;;;;5062984;28;19913;-70
2021/03/01 10:27:52;;;;;;;;;;;11.40;84.90;;;;;;5059778;28;20003;-70
2021/03/01 10:30:18;;;;;;;;;;;11.30;86.50;;;;;;5058879;28;19995;-70
2021/03/01 10:32:43;;;;;;;;;;;11.40;85.60;;;;;;5059158;28;20337;-70
2021/03/01 10:35:16;;;;;;;;;;;11.40;83.60;;;;;;5064615;28;20247;-69
2021/03/01 10:37:58;;;;;;;;;;;11.30;85.10;;;;;;5070192;28;19912;-70
2021/03/01 10:40:24;;;;;;;;;;;11.00;87.40;;;;;;5076311;28;20346;-71
2021/03/01 10:42:50;;;;;;;;;;;10.80;89.40;;;;;;5076699;28;20365;-71
2021/03/01 10:45:15;;;;;;;;;;;11.00;87.00;;;;;;5076449;28;19962;-71
2021/03/01 10:47:41;;;;;;;;;;;11.20;87.80;;;;;;5076402;28;20338;-72
2021/03/01 10:50:19;;;;;;;;;;;11.30;86.10;;;;;;5076361;28;19912;-71
2021/03/01 10:52:45;;;;;;;;;;;11.50;85.70;;;;;;5063241;28;20031;-70
2021/03/01 10:55:11;;;;;;;;;;;11.60;83.80;;;;;;5075119;28;19944;-71
2021/03/01 10:57:36;;;;;;;;;;;11.70;84.80;;;;;;5074341;28;19994;-69
2021/03/01 11:00:02;;;;;;;;;;;11.60;81.90;;;;;;5071639;28;19912;-70
2021/03/01 11:02:28;;;;;;;;;;;11.70;83.00;;;;;;5075836;28;19912;-70
2021/03/01 11:04:54;;;;;;;;;;;11.70;84.00;;;;;;5076460;28;20377;-71
2021/03/01 11:07:20;;;;;;;;;;;11.50;84.00;;;;;;5075892;28;20012;-69
2021/03/01 11:09:46;;;;;;;;;;;11.50;83.90;;;;;;5076135;28;19908;-70
2021/03/01 11:12:11;;;;;;;;;;;11.30;85.80;;;;;;5075997;28;19908;-69
2021/03/01 11:14:37;;;;;;;;;;;11.40;84.30;;;;;;5075214;28;20369;-71
2021/03/01 11:17:04;;;;;;;;;;;11.40;81.80;;;;;;5075563;28;19931;-71
2021/03/01 11:19:29;;;;;;;;;;;11.30;86.10;;;;;;5075255;28;19959;-72
2021/03/01 11:21:55;;;;;;;;;;;11.60;89.20;;;;;;5075448;28;19952;-70
2021/03/01 11:24:22;;;;;;;;;;;11.80;85.00;;;;;;5074431;28;20740;-71
2021/03/01 11:26:48;;;;;;;;;;;11.90;82.40;;;;;;5068363;28;19909;-71
2021/03/01 11:29:13;;;;;;;;;;;12.00;80.60;;;;;;5060521;28;19921;-70
2021/03/01 11:31:39;;;;;;;;;;;12.00;81.30;;;;;;5061377;28;20397;-70
2021/03/01 11:34:06;;;;;;;;;;;12.20;81.10;;;;;;5055718;28;19913;-69
2021/03/01 11:36:32;;;;;;;;;;;12.00;81.30;;;;;;5056172;28;19954;-72
2021/03/01 11:38:57;;;;;;;;;;;12.00;80.90;;;;;;5075542;28;19909;-70
2021/03/01 11:41:23;;;;;;;;;;;11.80;82.30;;;;;;5075619;28;19913;-71
2021/03/01 11:43:49;;;;;;;;;;;11.80;80.50;;;;;;5073474;28;19943;-69
2021/03/01 11:46:16;;;;;;;;;;;11.90;80.90;;;;;;5075026;28;20011;-70
2021/03/01 11:48:42;;;;;;;;;;;11.80;80.10;;;;;;5074579;28;19915;-69
2021/03/01 11:51:07;;;;;;;;;;;11.60;83.30;;;;;;5074927;28;19930;-71
2021/03/01 11:53:33;;;;;;;;;;;11.80;82.50;;;;;;5090880;28;19915;-68
2021/03/01 11:55:58;;;;;;;;;;;11.70;85.40;;;;;;5074771;28;19985;-70
2021/03/01 11:58:24;;;;;;;;;;;11.80;82.80;;;;;;5074842;28;20402;-70
2021/03/01 12:00:49;;;;;;;;;;;11.90;82.70;;;;;;5073349;28;20364;-70
2021/03/01 12:03:15;;;;;;;;;;;12.10;82.00;;;;;;5074758;28;20265;-71
2021/03/01 12:05:41;;;;;;;;;;;12.30;80.50;;;;;;5074540;28;20353;-71
2021/03/01 12:08:08;;;;;;;;;;;12.30;79.60;;;;;;5074919;28;20008;-71
2021/03/01 12:10:34;;;;;;;;;;;12.40;79.60;;;;;;5074264;28;19908;-69
2021/03/01 12:12:59;;;;;;;;;;;12.30;79.40;;;;;;5074504;28;19915;-71
2021/03/01 12:15:25;;;;;;;;;;;12.30;79.30;;;;;;5074429;28;19912;-71
2021/03/01 12:17:50;;;;;;;;;;;12.30;81.50;;;;;;5057734;28;19948;-71
2021/03/01 12:20:16;;;;;;;;;;;12.30;80.80;;;;;;5056254;28;19919;-71
2021/03/01 12:22:42;;;;;;;;;;;12.30;82.20;;;;;;5057631;28;19967;-69
2021/03/01 12:25:07;;;;;;;;;;;12.40;82.10;;;;;;5053620;28;19909;-70
2021/03/01 12:27:33;;;;;;;;;;;12.20;80.80;;;;;;5054860;28;19908;-71
2021/03/01 12:29:59;;;;;;;;;;;12.30;77.20;;;;;;5055328;28;19921;-70
2021/03/01 12:32:24;;;;;;;;;;;12.50;77.30;;;;;;5053772;28;20618;-73
2021/03/01 12:34:50;;;;;;;;;;;12.40;76.50;;;;;;5070547;28;19908;-69
2021/03/01 12:37:16;;;;;;;;;;;12.30;75.40;;;;;;5071852;28;19952;-70
2021/03/01 12:39:42;;;;;;;;;;;12.40;77.20;;;;;;5054414;28;19955;-71
2021/03/01 12:42:08;;;;;;;;;;;12.50;77.20;;;;;;5058415;28;19919;-71
2021/03/01 12:44:34;;;;;;;;;;;12.50;77.30;;;;;;5065895;28;19909;-71
2021/03/01 12:47:00;;;;;;;;;;;12.60;75.60;;;;;;5093947;28;20011;-70
2021/03/01 12:49:26;;;;;;;;;;;12.80;74.10;;;;;;5068456;28;20001;-70
2021/03/01 12:51:51;;;;;;;;;;;12.70;73.00;;;;;;5062720;28;19915;-69
2021/03/01 12:54:17;;;;;;;;;;;12.60;74.90;;;;;;5068653;28;19931;-70
2021/03/01 12:56:43;;;;;;;;;;;12.70;75.40;;;;;;5053929;28;20412;-72
2021/03/01 12:59:09;;;;;;;;;;;13.00;75.40;;;;;;5054922;28;19963;-70
2021/03/01 13:01:34;;;;;;;;;;;12.80;74.00;;;;;;5063946;28;19924;-71
2021/03/01 13:04:00;;;;;;;;;;;12.90;76.80;;;;;;5057824;28;19909;-72
2021/03/01 13:06:25;;;;;;;;;;;12.80;76.90;;;;;;5055174;28;19919;-72
2021/03/01 13:08:51;;;;;;;;;;;12.70;77.70;;;;;;5064225;28;19909;-71
2021/03/01 13:11:19;;;;;;;;;;;12.60;73.70;;;;;;5065466;28;19913;-72
2021/03/01 13:13:45;;;;;;;;;;;12.30;73.90;;;;;;5063600;28;20390;-70
2021/03/01 13:16:11;;;;;;;;;;;12.50;72.70;;;;;;5060775;28;19909;-70
2021/03/01 13:18:37;;;;;;;;;;;12.70;72.90;;;;;;5092898;28;19920;-70
2021/03/01 13:21:03;;;;;;;;;;;12.90;72.90;;;;;;5067631;28;19913;-69
2021/03/01 13:23:28;;;;;;;;;;;13.00;70.70;;;;;;5067895;28;20003;-70
2021/03/01 13:25:54;;;;;;;;;;;13.00;71.40;;;;;;5068239;28;19944;-70
2021/03/01 13:28:19;;;;;;;;;;;12.90;70.50;;;;;;5070494;28;19927;-69
2021/03/01 13:30:45;;;;;;;;;;;13.00;70.30;;;;;;5065415;28;19920;-72
2021/03/01 13:33:11;;;;;;;;;;;12.90;70.40;;;;;;5059224;28;19916;-70
2021/03/01 13:35:36;;;;;;;;;;;13.00;70.60;;;;;;5061441;28;19912;-70
2021/03/01 13:38:02;;;;;;;;;;;13.10;70.90;;;;;;5068264;28;19913;-71
2021/03/01 13:40:28;;;;;;;;;;;13.20;70.90;;;;;;5067442;28;19912;-71
2021/03/01 13:42:53;;;;;;;;;;;13.40;69.30;;;;;;5071298;28;20028;-70
2021/03/01 13:45:19;;;;;;;;;;;13.50;69.20;;;;;;5055026;28;19913;-69
2021/03/01 13:47:45;;;;;;;;;;;13.60;68.60;;;;;;5072618;28;20439;-70
2021/03/01 13:50:11;;;;;;;;;;;13.50;67.60;;;;;;5072591;28;19960;-70
2021/03/01 13:52:37;;;;;;;;;;;13.30;68.00;;;;;;5057941;28;19994;-70
2021/03/01 13:55:03;;;;;;;;;;;13.40;67.70;;;;;;5095224;28;19931;-72
2021/03/01 13:57:28;;;;;;;;;;;13.40;67.30;;;;;;5070510;28;20337;-69
2021/03/01 13:59:54;;;;;;;;;;;13.40;66.80;;;;;;5058777;28;19968;-70
2021/03/01 14:02:19;;;;;;;;;;;13.30;67.60;;;;;;5056808;28;20605;-70
2021/03/01 14:04:45;;;;;;;;;;;13.20;67.70;;;;;;5060605;28;19959;-70
2021/03/01 14:07:10;;;;;;;;;;;13.30;68.70;;;;;;5097111;28;19943;-70
2021/03/01 14:09:36;;;;;;;;;;;13.20;68.20;;;;;;5066356;28;19908;-70
2021/03/01 14:12:02;;;;;;;;;;;13.20;68.20;;;;;;5062032;28;19909;-70
2021/03/01 14:14:27;;;;;;;;;;;13.20;68.40;;;;;;5065226;28;19908;-73
2021/03/01 14:16:53;;;;;;;;;;;13.20;68.70;;;;;;5065731;28;20003;-69
2021/03/01 14:19:18;;;;;;;;;;;13.10;67.60;;;;;;5067910;28;19928;-71
2021/03/01 14:21:44;;;;;;;;;;;13.60;68.70;;;;;;5074525;28;20304;-71
2021/03/01 14:24:10;;;;;;;;;;;14.00;65.40;;;;;;5065226;28;20339;-73
2021/03/01 14:26:35;;;;;;;;;;;15.20;63.30;;;;;;5076011;28;19916;-70